sensor_id;sensor_type;location;lat;lon;timestamp;temperature;humidity
4054;DHT22;2042;47.956;9.222;2024-01-30T00:01:50;-3.40;25.30
4054;DHT22;2042;47.956;9.222;2024-01-30T00:04:16;-3.40;25.10
4054;DHT22;2042;47.956;9.222;2024-01-30T00:06:43;-3.40;25.10
4054;DHT22;2042;47.956;9.222;2024-01-30T00:09:08;-3.40;25.30
4054;DHT22;2042;47.956;9.222;2024-01-30T00:11:35;-3.50;25.10
4054;DHT22;2042;47.956;9.222;2024-01-30T00:14:01;-3.50;24.70
4054;DHT22;2042;47.956;9.222;2024-01-30T00:16:27;-3.60;23.50
4054;DHT22;2042;47.956;9.222;2024-01-30T00:18:54;-3.80;23.00
4054;DHT22;2042;47.956;9.222;2024-01-30T00:21:20;-3.90;23.00
4054;DHT22;2042;47.956;9.222;2024-01-30T00:23:46;-3.90;23.00
4054;DHT22;2042;47.956;9.222;2024-01-30T00:26:13;-4.00;23.00
4054;DHT22;2042;47.956;9.222;2024-01-30T00:28:40;-4.00;23.00
4054;DHT22;2042;47.956;9.222;2024-01-30T00:31:06;-3.90;23.90
4054;DHT22;2042;47.956;9.222;2024-01-30T00:33:32;-3.90;24.50
4054;DHT22;2042;47.956;9.222;2024-01-30T00:35:57;-3.80;25.60
4054;DHT22;2042;47.956;9.222;2024-01-30T00:38:23;-3.60;26.60
4054;DHT22;2042;47.956;9.222;2024-01-30T00:40:49;-3.50;27.10
4054;DHT22;2042;47.956;9.222;2024-01-30T00:43:15;-3.40;26.80
4054;DHT22;2042;47.956;9.222;2024-01-30T00:45:41;-3.50;26.00
4054;DHT22;2042;47.956;9.222;2024-01-30T00:48:07;-3.60;25.60
4054;DHT22;2042;47.956;9.222;2024-01-30T00:50:32;-3.60;25.80
4054;DHT22;2042;47.956;9.222;2024-01-30T00:52:58;-3.60;25.60
4054;DHT22;2042;47.956;9.222;2024-01-30T00:55:24;-3.70;25.50
4054;DHT22;2042;47.956;9.222;2024-01-30T00:57:49;-3.60;26.00
4054;DHT22;2042;47.956;9.222;2024-01-30T01:00:15;-3.60;26.20
4054;DHT22;2042;47.956;9.222;2024-01-30T01:02:44;-3.70;25.70
4054;DHT22;2042;47.956;9.222;2024-01-30T01:05:10;-3.60;26.50
4054;DHT22;2042;47.956;9.222;2024-01-30T01:07:36;-3.50;27.10
4054;DHT22;2042;47.956;9.222;2024-01-30T01:10:01;-3.50;26.90
4054;DHT22;2042;47.956;9.222;2024-01-30T01:12:28;-3.50;27.40
4054;DHT22;2042;47.956;9.222;2024-01-30T01:14:53;-3.40;28.10
4054;DHT22;2042;47.956;9.222;2024-01-30T01:17:19;-3.30;28.20
4054;DHT22;2042;47.956;9.222;2024-01-30T01:19:45;-3.30;28.00
4054;DHT22;2042;47.956;9.222;2024-01-30T01:22:11;-3.40;26.80
4054;DHT22;2042;47.956;9.222;2024-01-30T01:24:36;-3.50;27.30
4054;DHT22;2042;47.956;9.222;2024-01-30T01:27:02;-3.60;26.50
4054;DHT22;2042;47.956;9.222;2024-01-30T01:29:28;-3.60;26.30
4054;DHT22;2042;47.956;9.222;2024-01-30T01:31:55;-3.70;25.80
4054;DHT22;2042;47.956;9.222;2024-01-30T01:34:21;-3.80;25.70
4054;DHT22;2042;47.956;9.222;2024-01-30T01:36:47;-3.80;25.90
4054;DHT22;2042;47.956;9.222;2024-01-30T01:39:13;-3.80;26.60
4054;DHT22;2042;47.956;9.222;2024-01-30T01:41:39;-3.60;27.70
4054;DHT22;2042;47.956;9.222;2024-01-30T01:44:04;-3.50;28.60
4054;DHT22;2042;47.956;9.222;2024-01-30T01:46:32;-3.40;29.00
4054;DHT22;2042;47.956;9.222;2024-01-30T01:48:58;-3.30;29.00
4054;DHT22;2042;47.956;9.222;2024-01-30T01:51:27;-3.30;28.80
4054;DHT22;2042;47.956;9.222;2024-01-30T01:53:54;-3.40;27.90
4054;DHT22;2042;47.956;9.222;2024-01-30T01:56:22;-3.50;27.30
4054;DHT22;2042;47.956;9.222;2024-01-30T01:58:48;-3.60;27.40
4054;DHT22;2042;47.956;9.222;2024-01-30T02:01:17;-3.60;27.70
4054;DHT22;2042;47.956;9.222;2024-01-30T02:03:45;-3.50;28.10
4054;DHT22;2042;47.956;9.222;2024-01-30T02:06:11;-3.50;28.50
4054;DHT22;2042;47.956;9.222;2024-01-30T02:08:37;-3.40;28.80
4054;DHT22;2042;47.956;9.222;2024-01-30T02:11:04;-3.40;29.20
4054;DHT22;2042;47.956;9.222;2024-01-30T02:13:30;-3.30;29.70
4054;DHT22;2042;47.956;9.222;2024-01-30T02:15:56;-3.20;30.00
4054;DHT22;2042;47.956;9.222;2024-01-30T02:18:22;-3.20;29.90
4054;DHT22;2042;47.956;9.222;2024-01-30T02:20:48;-3.20;30.00
4054;DHT22;2042;47.956;9.222;2024-01-30T02:23:16;-3.20;29.70
4054;DHT22;2042;47.956;9.222;2024-01-30T02:25:42;-3.30;28.70
4054;DHT22;2042;47.956;9.222;2024-01-30T02:28:13;-3.40;28.10
4054;DHT22;2042;47.956;9.222;2024-01-30T02:30:47;-3.50;28.30
4054;DHT22;2042;47.956;9.222;2024-01-30T02:33:13;-3.40;29.50
4054;DHT22;2042;47.956;9.222;2024-01-30T02:35:39;-3.50;28.80
4054;DHT22;2042;47.956;9.222;2024-01-30T02:38:05;-3.50;28.70
4054;DHT22;2042;47.956;9.222;2024-01-30T02:40:31;-3.50;28.50
4054;DHT22;2042;47.956;9.222;2024-01-30T02:42:58;-3.60;28.40
4054;DHT22;2042;47.956;9.222;2024-01-30T02:45:24;-3.60;28.20
4054;DHT22;2042;47.956;9.222;2024-01-30T02:47:50;-3.70;28.00
4054;DHT22;2042;47.956;9.222;2024-01-30T02:50:15;-3.70;28.30
4054;DHT22;2042;47.956;9.222;2024-01-30T02:52:42;-3.60;29.00
4054;DHT22;2042;47.956;9.222;2024-01-30T02:55:11;-3.50;29.70
4054;DHT22;2042;47.956;9.222;2024-01-30T02:57:40;-3.50;29.70
4054;DHT22;2042;47.956;9.222;2024-01-30T03:00:06;-3.50;29.90
4054;DHT22;2042;47.956;9.222;2024-01-30T03:02:34;-3.40;30.00
4054;DHT22;2042;47.956;9.222;2024-01-30T03:05:00;-3.40;30.10
4054;DHT22;2042;47.956;9.222;2024-01-30T03:07:26;-3.30;30.10
4054;DHT22;2042;47.956;9.222;2024-01-30T03:09:52;-3.30;30.00
4054;DHT22;2042;47.956;9.222;2024-01-30T03:12:18;-3.40;29.90
4054;DHT22;2042;47.956;9.222;2024-01-30T03:14:43;-3.40;29.80
4054;DHT22;2042;47.956;9.222;2024-01-30T03:17:09;-3.40;29.70
4054;DHT22;2042;47.956;9.222;2024-01-30T03:19:34;-3.50;29.10
4054;DHT22;2042;47.956;9.222;2024-01-30T03:22:01;-3.60;28.50
4054;DHT22;2042;47.956;9.222;2024-01-30T03:24:26;-3.60;28.80
4054;DHT22;2042;47.956;9.222;2024-01-30T03:26:52;-3.60;29.00
4054;DHT22;2042;47.956;9.222;2024-01-30T03:29:18;-3.70;28.70
4054;DHT22;2042;47.956;9.222;2024-01-30T03:31:44;-3.70;28.60
4054;DHT22;2042;47.956;9.222;2024-01-30T03:34:09;-3.70;28.90
4054;DHT22;2042;47.956;9.222;2024-01-30T03:36:35;-3.70;29.00
4054;DHT22;2042;47.956;9.222;2024-01-30T03:39:01;-3.70;29.60
4054;DHT22;2042;47.956;9.222;2024-01-30T03:41:27;-3.60;29.90
4054;DHT22;2042;47.956;9.222;2024-01-30T03:43:53;-3.60;29.90
4054;DHT22;2042;47.956;9.222;2024-01-30T03:46:18;-3.60;29.80
4054;DHT22;2042;47.956;9.222;2024-01-30T03:48:45;-3.60;29.60
4054;DHT22;2042;47.956;9.222;2024-01-30T03:51:11;-3.60;29.70
4054;DHT22;2042;47.956;9.222;2024-01-30T03:53:42;-3.60;29.70
4054;DHT22;2042;47.956;9.222;2024-01-30T03:56:08;-3.70;29.20
4054;DHT22;2042;47.956;9.222;2024-01-30T03:58:34;-3.70;28.90
4054;DHT22;2042;47.956;9.222;2024-01-30T04:01:00;-3.70;29.10
4054;DHT22;2042;47.956;9.222;2024-01-30T04:03:25;-3.70;29.50
4054;DHT22;2042;47.956;9.222;2024-01-30T04:05:52;-3.70;29.80
4054;DHT22;2042;47.956;9.222;2024-01-30T04:08:17;-3.70;29.70
4054;DHT22;2042;47.956;9.222;2024-01-30T04:10:43;-3.70;29.20
4054;DHT22;2042;47.956;9.222;2024-01-30T04:13:08;-3.80;28.60
4054;DHT22;2042;47.956;9.222;2024-01-30T04:15:34;-3.90;28.30
4054;DHT22;2042;47.956;9.222;2024-01-30T04:18:00;-3.90;28.50
4054;DHT22;2042;47.956;9.222;2024-01-30T04:20:26;-3.90;29.00
4054;DHT22;2042;47.956;9.222;2024-01-30T04:22:52;-3.90;28.90
4054;DHT22;2042;47.956;9.222;2024-01-30T04:25:18;-3.90;28.60
4054;DHT22;2042;47.956;9.222;2024-01-30T04:27:43;-4.00;28.30
4054;DHT22;2042;47.956;9.222;2024-01-30T04:30:09;-4.00;28.10
4054;DHT22;2042;47.956;9.222;2024-01-30T04:32:36;-4.00;27.90
4054;DHT22;2042;47.956;9.222;2024-01-30T04:35:03;-4.10;27.90
4054;DHT22;2042;47.956;9.222;2024-01-30T04:37:28;-4.10;27.70
4054;DHT22;2042;47.956;9.222;2024-01-30T04:39:54;-4.10;27.70
4054;DHT22;2042;47.956;9.222;2024-01-30T04:42:20;-4.10;27.90
4054;DHT22;2042;47.956;9.222;2024-01-30T04:44:46;-4.10;28.00
4054;DHT22;2042;47.956;9.222;2024-01-30T04:47:11;-4.10;27.90
4054;DHT22;2042;47.956;9.222;2024-01-30T04:49:40;-4.10;28.70
4054;DHT22;2042;47.956;9.222;2024-01-30T04:52:07;-4.00;29.10
4054;DHT22;2042;47.956;9.222;2024-01-30T04:54:33;-4.10;28.70
4054;DHT22;2042;47.956;9.222;2024-01-30T04:57:00;-4.00;29.20
4054;DHT22;2042;47.956;9.222;2024-01-30T04:59:25;-3.90;29.60
4054;DHT22;2042;47.956;9.222;2024-01-30T05:01:51;-3.90;29.60
4054;DHT22;2042;47.956;9.222;2024-01-30T05:04:16;-3.90;29.40
4054;DHT22;2042;47.956;9.222;2024-01-30T05:06:42;-3.90;29.60
4054;DHT22;2042;47.956;9.222;2024-01-30T05:09:08;-3.90;29.70
4054;DHT22;2042;47.956;9.222;2024-01-30T05:11:41;-3.80;29.80
4054;DHT22;2042;47.956;9.222;2024-01-30T05:14:07;-3.80;29.80
4054;DHT22;2042;47.956;9.222;2024-01-30T05:16:33;-3.80;29.70
4054;DHT22;2042;47.956;9.222;2024-01-30T05:18:59;-3.90;29.70
4054;DHT22;2042;47.956;9.222;2024-01-30T05:21:25;-3.80;29.70
4054;DHT22;2042;47.956;9.222;2024-01-30T05:23:51;-3.90;29.30
4054;DHT22;2042;47.956;9.222;2024-01-30T05:26:17;-4.00;28.90
4054;DHT22;2042;47.956;9.222;2024-01-30T05:28:43;-4.00;29.00
4054;DHT22;2042;47.956;9.222;2024-01-30T05:31:10;-4.00;28.70
4054;DHT22;2042;47.956;9.222;2024-01-30T05:33:36;-4.10;28.20
4054;DHT22;2042;47.956;9.222;2024-01-30T05:36:01;-4.20;27.90
4054;DHT22;2042;47.956;9.222;2024-01-30T05:38:27;-4.30;27.70
4054;DHT22;2042;47.956;9.222;2024-01-30T05:40:57;-4.20;28.30
4054;DHT22;2042;47.956;9.222;2024-01-30T05:43:26;-4.20;29.00
4054;DHT22;2042;47.956;9.222;2024-01-30T05:45:52;-4.10;29.50
4054;DHT22;2042;47.956;9.222;2024-01-30T05:48:18;-4.00;29.40
4054;DHT22;2042;47.956;9.222;2024-01-30T05:50:43;-4.10;29.10
4054;DHT22;2042;47.956;9.222;2024-01-30T05:53:10;-4.10;28.90
4054;DHT22;2042;47.956;9.222;2024-01-30T05:55:36;-4.20;28.60
4054;DHT22;2042;47.956;9.222;2024-01-30T05:58:02;-4.20;28.50
4054;DHT22;2042;47.956;9.222;2024-01-30T06:00:28;-4.20;28.20
4054;DHT22;2042;47.956;9.222;2024-01-30T06:02:53;-4.30;28.20
4054;DHT22;2042;47.956;9.222;2024-01-30T06:05:19;-4.30;28.20
4054;DHT22;2042;47.956;9.222;2024-01-30T06:07:44;-4.30;28.10
4054;DHT22;2042;47.956;9.222;2024-01-30T06:10:10;-4.30;28.70
4054;DHT22;2042;47.956;9.222;2024-01-30T06:12:36;-4.20;29.40
4054;DHT22;2042;47.956;9.222;2024-01-30T06:15:02;-4.10;29.60
4054;DHT22;2042;47.956;9.222;2024-01-30T06:17:28;-4.10;29.60
4054;DHT22;2042;47.956;9.222;2024-01-30T06:19:53;-4.10;29.60
4054;DHT22;2042;47.956;9.222;2024-01-30T06:22:19;-4.10;29.40
4054;DHT22;2042;47.956;9.222;2024-01-30T06:24:45;-4.10;29.20
4054;DHT22;2042;47.956;9.222;2024-01-30T06:27:14;-4.20;28.90
4054;DHT22;2042;47.956;9.222;2024-01-30T06:29:40;-4.20;29.40
4054;DHT22;2042;47.956;9.222;2024-01-30T06:32:06;-4.00;29.90
4054;DHT22;2042;47.956;9.222;2024-01-30T06:34:32;-3.90;30.00
4054;DHT22;2042;47.956;9.222;2024-01-30T06:36:57;-3.90;30.00
4054;DHT22;2042;47.956;9.222;2024-01-30T06:39:23;-3.70;30.70
4054;DHT22;2042;47.956;9.222;2024-01-30T06:41:49;-3.70;30.40
4054;DHT22;2042;47.956;9.222;2024-01-30T06:44:14;-3.70;30.30
4054;DHT22;2042;47.956;9.222;2024-01-30T06:46:40;-3.70;30.30
4054;DHT22;2042;47.956;9.222;2024-01-30T06:49:06;-3.80;30.00
4054;DHT22;2042;47.956;9.222;2024-01-30T06:51:31;-3.80;29.90
4054;DHT22;2042;47.956;9.222;2024-01-30T06:53:57;-4.00;29.60
4054;DHT22;2042;47.956;9.222;2024-01-30T06:56:23;-4.00;29.50
4054;DHT22;2042;47.956;9.222;2024-01-30T06:58:49;-4.10;29.60
4054;DHT22;2042;47.956;9.222;2024-01-30T07:01:15;-4.00;29.80
4054;DHT22;2042;47.956;9.222;2024-01-30T07:03:41;-4.00;29.90
4054;DHT22;2042;47.956;9.222;2024-01-30T07:06:07;-3.90;30.20
4054;DHT22;2042;47.956;9.222;2024-01-30T07:08:33;-3.80;30.80
4054;DHT22;2042;47.956;9.222;2024-01-30T07:10:59;-3.70;31.60
4054;DHT22;2042;47.956;9.222;2024-01-30T07:13:25;-3.60;31.90
4054;DHT22;2042;47.956;9.222;2024-01-30T07:15:50;-3.50;32.30
4054;DHT22;2042;47.956;9.222;2024-01-30T07:18:16;-3.50;32.50
4054;DHT22;2042;47.956;9.222;2024-01-30T07:20:41;-3.40;33.00
4054;DHT22;2042;47.956;9.222;2024-01-30T07:23:12;-3.30;33.40
4054;DHT22;2042;47.956;9.222;2024-01-30T07:25:43;-3.20;34.00
4054;DHT22;2042;47.956;9.222;2024-01-30T07:28:09;-3.00;34.50
4054;DHT22;2042;47.956;9.222;2024-01-30T07:30:36;-2.90;34.90
4054;DHT22;2042;47.956;9.222;2024-01-30T07:33:01;-2.70;35.70
4054;DHT22;2042;47.956;9.222;2024-01-30T07:35:27;-2.50;36.50
4054;DHT22;2042;47.956;9.222;2024-01-30T07:37:53;-2.30;37.30
4054;DHT22;2042;47.956;9.222;2024-01-30T07:40:18;-2.00;38.30
4054;DHT22;2042;47.956;9.222;2024-01-30T07:42:44;-1.70;39.30
4054;DHT22;2042;47.956;9.222;2024-01-30T07:45:10;-1.50;40.10
4054;DHT22;2042;47.956;9.222;2024-01-30T07:47:35;-1.20;40.60
4054;DHT22;2042;47.956;9.222;2024-01-30T07:50:01;-1.10;40.70
4054;DHT22;2042;47.956;9.222;2024-01-30T07:52:27;-0.80;40.90
4054;DHT22;2042;47.956;9.222;2024-01-30T07:54:52;-0.70;41.10
4054;DHT22;2042;47.956;9.222;2024-01-30T07:57:18;-0.50;41.20
4054;DHT22;2042;47.956;9.222;2024-01-30T07:59:44;-0.50;41.00
4054;DHT22;2042;47.956;9.222;2024-01-30T08:02:11;-0.40;41.10
4054;DHT22;2042;47.956;9.222;2024-01-30T08:04:37;-0.30;41.30
4054;DHT22;2042;47.956;9.222;2024-01-30T08:07:02;-0.10;41.60
4054;DHT22;2042;47.956;9.222;2024-01-30T08:09:28;0.10;41.80
4054;DHT22;2042;47.956;9.222;2024-01-30T08:11:54;0.30;42.20
4054;DHT22;2042;47.956;9.222;2024-01-30T08:14:19;0.60;43.00
4054;DHT22;2042;47.956;9.222;2024-01-30T08:16:45;1.00;44.00
4054;DHT22;2042;47.956;9.222;2024-01-30T08:19:10;1.40;44.30
4054;DHT22;2042;47.956;9.222;2024-01-30T08:21:36;1.60;43.30
4054;DHT22;2042;47.956;9.222;2024-01-30T08:24:05;1.80;43.10
4054;DHT22;2042;47.956;9.222;2024-01-30T08:26:32;2.10;43.10
4054;DHT22;2042;47.956;9.222;2024-01-30T08:28:58;2.30;42.30
4054;DHT22;2042;47.956;9.222;2024-01-30T08:31:24;2.60;42.20
4054;DHT22;2042;47.956;9.222;2024-01-30T08:33:49;3.00;40.30
4054;DHT22;2042;47.956;9.222;2024-01-30T08:36:16;3.30;37.20
4054;DHT22;2042;47.956;9.222;2024-01-30T08:38:41;3.50;34.00
4054;DHT22;2042;47.956;9.222;2024-01-30T08:41:07;3.90;31.60
4054;DHT22;2042;47.956;9.222;2024-01-30T08:43:33;4.30;28.60
4054;DHT22;2042;47.956;9.222;2024-01-30T08:45:59;4.60;22.50
4054;DHT22;2042;47.956;9.222;2024-01-30T08:48:25;4.90;17.90
4054;DHT22;2042;47.956;9.222;2024-01-30T08:50:51;5.20;13.30
4054;DHT22;2042;47.956;9.222;2024-01-30T08:53:17;5.70;9.00
4054;DHT22;2042;47.956;9.222;2024-01-30T08:55:42;6.50;7.10
4054;DHT22;2042;47.956;9.222;2024-01-30T08:58:08;7.30;1.00
4054;DHT22;2042;47.956;9.222;2024-01-30T09:00:34;8.00;1.00
4054;DHT22;2042;47.956;9.222;2024-01-30T09:03:00;8.60;1.00
4054;DHT22;2042;47.956;9.222;2024-01-30T09:05:25;9.00;1.00
4054;DHT22;2042;47.956;9.222;2024-01-30T09:07:51;9.60;1.00
4054;DHT22;2042;47.956;9.222;2024-01-30T09:10:17;10.20;1.00
4054;DHT22;2042;47.956;9.222;2024-01-30T09:12:42;11.10;1.00
4054;DHT22;2042;47.956;9.222;2024-01-30T09:15:08;11.70;1.00
4054;DHT22;2042;47.956;9.222;2024-01-30T09:17:34;12.10;1.00
4054;DHT22;2042;47.956;9.222;2024-01-30T09:20:00;12.30;1.00
4054;DHT22;2042;47.956;9.222;2024-01-30T09:22:25;12.50;1.00
4054;DHT22;2042;47.956;9.222;2024-01-30T09:24:51;12.70;1.00
4054;DHT22;2042;47.956;9.222;2024-01-30T09:27:17;12.70;1.00
4054;DHT22;2042;47.956;9.222;2024-01-30T09:29:43;12.70;1.00
4054;DHT22;2042;47.956;9.222;2024-01-30T09:32:08;12.90;1.00
4054;DHT22;2042;47.956;9.222;2024-01-30T09:34:34;13.20;1.00
4054;DHT22;2042;47.956;9.222;2024-01-30T09:37:00;13.70;1.00
4054;DHT22;2042;47.956;9.222;2024-01-30T09:39:26;13.70;1.00
4054;DHT22;2042;47.956;9.222;2024-01-30T09:42:04;13.80;1.00
4054;DHT22;2042;47.956;9.222;2024-01-30T09:44:30;14.20;1.00
4054;DHT22;2042;47.956;9.222;2024-01-30T09:46:57;14.60;1.00
4054;DHT22;2042;47.956;9.222;2024-01-30T09:49:31;14.70;1.00
4054;DHT22;2042;47.956;9.222;2024-01-30T09:51:57;14.60;1.00
4054;DHT22;2042;47.956;9.222;2024-01-30T09:54:23;14.40;1.00
4054;DHT22;2042;47.956;9.222;2024-01-30T09:56:49;14.90;1.00
4054;DHT22;2042;47.956;9.222;2024-01-30T09:59:15;15.20;1.00
4054;DHT22;2042;47.956;9.222;2024-01-30T10:01:42;15.40;1.00
4054;DHT22;2042;47.956;9.222;2024-01-30T10:04:08;15.60;1.00
4054;DHT22;2042;47.956;9.222;2024-01-30T10:06:34;15.40;1.00
4054;DHT22;2042;47.956;9.222;2024-01-30T10:08:59;14.80;1.00
4054;DHT22;2042;47.956;9.222;2024-01-30T10:11:25;14.10;1.00
4054;DHT22;2042;47.956;9.222;2024-01-30T10:13:51;13.40;1.00
4054;DHT22;2042;47.956;9.222;2024-01-30T10:16:16;12.40;1.00
4054;DHT22;2042;47.956;9.222;2024-01-30T10:18:42;11.70;1.00
4054;DHT22;2042;47.956;9.222;2024-01-30T10:21:08;11.10;1.00
4054;DHT22;2042;47.956;9.222;2024-01-30T10:23:35;10.60;1.00
4054;DHT22;2042;47.956;9.222;2024-01-30T10:26:03;10.80;1.00
4054;DHT22;2042;47.956;9.222;2024-01-30T10:28:30;11.70;1.00
4054;DHT22;2042;47.956;9.222;2024-01-30T10:30:59;12.80;1.00
4054;DHT22;2042;47.956;9.222;2024-01-30T10:33:29;13.50;1.00
4054;DHT22;2042;47.956;9.222;2024-01-30T10:36:04;13.70;1.00
4054;DHT22;2042;47.956;9.222;2024-01-30T10:38:30;13.50;1.00
4054;DHT22;2042;47.956;9.222;2024-01-30T10:40:57;12.90;1.00
4054;DHT22;2042;47.956;9.222;2024-01-30T10:43:28;12.50;1.00
4054;DHT22;2042;47.956;9.222;2024-01-30T10:45:57;12.20;1.00
4054;DHT22;2042;47.956;9.222;2024-01-30T10:48:30;12.50;1.00
4054;DHT22;2042;47.956;9.222;2024-01-30T10:50:57;12.70;1.00
4054;DHT22;2042;47.956;9.222;2024-01-30T10:53:25;13.00;1.00
4054;DHT22;2042;47.956;9.222;2024-01-30T10:55:51;12.90;1.00
4054;DHT22;2042;47.956;9.222;2024-01-30T10:58:18;12.30;1.00
4054;DHT22;2042;47.956;9.222;2024-01-30T11:00:44;11.50;1.00
4054;DHT22;2042;47.956;9.222;2024-01-30T11:03:11;10.90;1.00
4054;DHT22;2042;47.956;9.222;2024-01-30T11:05:40;10.60;1.00
4054;DHT22;2042;47.956;9.222;2024-01-30T11:08:13;10.80;1.00
4054;DHT22;2042;47.956;9.222;2024-01-30T11:10:48;11.40;1.00
4054;DHT22;2042;47.956;9.222;2024-01-30T11:13:14;11.90;1.00
4054;DHT22;2042;47.956;9.222;2024-01-30T11:15:40;12.00;1.00
4054;DHT22;2042;47.956;9.222;2024-01-30T11:18:06;12.40;1.00
4054;DHT22;2042;47.956;9.222;2024-01-30T11:20:32;12.90;1.00
4054;DHT22;2042;47.956;9.222;2024-01-30T11:22:59;13.30;1.00
4054;DHT22;2042;47.956;9.222;2024-01-30T11:25:25;13.20;1.00
4054;DHT22;2042;47.956;9.222;2024-01-30T11:27:52;13.00;1.00
4054;DHT22;2042;47.956;9.222;2024-01-30T11:30:31;13.50;1.00
4054;DHT22;2042;47.956;9.222;2024-01-30T11:33:06;14.40;1.00
4054;DHT22;2042;47.956;9.222;2024-01-30T11:35:35;14.50;1.00
4054;DHT22;2042;47.956;9.222;2024-01-30T11:38:02;14.50;1.00
4054;DHT22;2042;47.956;9.222;2024-01-30T11:40:29;14.10;1.00
4054;DHT22;2042;47.956;9.222;2024-01-30T11:42:56;13.50;1.00
4054;DHT22;2042;47.956;9.222;2024-01-30T11:45:21;13.00;1.00
4054;DHT22;2042;47.956;9.222;2024-01-30T11:47:47;12.80;1.00
4054;DHT22;2042;47.956;9.222;2024-01-30T11:50:13;12.90;1.00
4054;DHT22;2042;47.956;9.222;2024-01-30T11:52:39;13.30;1.00
4054;DHT22;2042;47.956;9.222;2024-01-30T11:55:05;13.80;1.00
4054;DHT22;2042;47.956;9.222;2024-01-30T11:57:31;14.10;1.00
4054;DHT22;2042;47.956;9.222;2024-01-30T11:59:57;14.50;1.00
4054;DHT22;2042;47.956;9.222;2024-01-30T12:02:23;14.70;1.00
4054;DHT22;2042;47.956;9.222;2024-01-30T12:04:49;14.90;1.00
4054;DHT22;2042;47.956;9.222;2024-01-30T12:07:14;14.90;1.00
4054;DHT22;2042;47.956;9.222;2024-01-30T12:09:42;14.60;1.00
4054;DHT22;2042;47.956;9.222;2024-01-30T12:12:08;14.20;1.00
4054;DHT22;2042;47.956;9.222;2024-01-30T12:14:38;14.00;1.00
4054;DHT22;2042;47.956;9.222;2024-01-30T12:17:05;13.80;1.00
4054;DHT22;2042;47.956;9.222;2024-01-30T12:19:30;13.60;1.00
4054;DHT22;2042;47.956;9.222;2024-01-30T12:21:59;13.30;1.00
4054;DHT22;2042;47.956;9.222;2024-01-30T12:24:26;13.10;1.00
4054;DHT22;2042;47.956;9.222;2024-01-30T12:26:56;13.00;1.00
4054;DHT22;2042;47.956;9.222;2024-01-30T12:29:21;13.00;1.00
4054;DHT22;2042;47.956;9.222;2024-01-30T12:31:47;13.30;1.00
4054;DHT22;2042;47.956;9.222;2024-01-30T12:34:16;13.30;1.00
4054;DHT22;2042;47.956;9.222;2024-01-30T12:36:43;12.90;1.00
4054;DHT22;2042;47.956;9.222;2024-01-30T12:39:11;12.40;1.00
4054;DHT22;2042;47.956;9.222;2024-01-30T12:41:38;12.00;1.00
4054;DHT22;2042;47.956;9.222;2024-01-30T12:44:04;11.70;1.00
4054;DHT22;2042;47.956;9.222;2024-01-30T12:46:30;11.50;1.00
4054;DHT22;2042;47.956;9.222;2024-01-30T12:48:55;11.50;1.00
4054;DHT22;2042;47.956;9.222;2024-01-30T12:51:21;11.60;1.00
4054;DHT22;2042;47.956;9.222;2024-01-30T12:53:46;11.60;1.00
4054;DHT22;2042;47.956;9.222;2024-01-30T12:56:13;11.60;1.00
4054;DHT22;2042;47.956;9.222;2024-01-30T12:58:40;11.70;1.00
4054;DHT22;2042;47.956;9.222;2024-01-30T13:01:08;11.80;1.00
4054;DHT22;2042;47.956;9.222;2024-01-30T13:03:34;11.90;1.00
4054;DHT22;2042;47.956;9.222;2024-01-30T13:06:00;12.00;1.00
4054;DHT22;2042;47.956;9.222;2024-01-30T13:08:26;12.10;1.00
4054;DHT22;2042;47.956;9.222;2024-01-30T13:10:51;12.00;1.00
4054;DHT22;2042;47.956;9.222;2024-01-30T13:13:17;11.90;1.00
4054;DHT22;2042;47.956;9.222;2024-01-30T13:15:42;11.80;1.00
4054;DHT22;2042;47.956;9.222;2024-01-30T13:18:08;11.60;1.00
4054;DHT22;2042;47.956;9.222;2024-01-30T13:20:34;11.40;1.00
4054;DHT22;2042;47.956;9.222;2024-01-30T13:22:59;11.10;1.00
4054;DHT22;2042;47.956;9.222;2024-01-30T13:25:26;10.90;1.00
4054;DHT22;2042;47.956;9.222;2024-01-30T13:27:51;10.70;1.00
4054;DHT22;2042;47.956;9.222;2024-01-30T13:30:17;10.60;1.00
4054;DHT22;2042;47.956;9.222;2024-01-30T13:32:43;10.40;1.00
4054;DHT22;2042;47.956;9.222;2024-01-30T13:35:10;10.30;1.00
4054;DHT22;2042;47.956;9.222;2024-01-30T13:37:35;10.10;1.00
4054;DHT22;2042;47.956;9.222;2024-01-30T13:40:04;9.90;1.00
4054;DHT22;2042;47.956;9.222;2024-01-30T13:42:32;9.80;1.00
4054;DHT22;2042;47.956;9.222;2024-01-30T13:44:58;9.60;1.00
4054;DHT22;2042;47.956;9.222;2024-01-30T13:47:23;9.50;1.00
4054;DHT22;2042;47.956;9.222;2024-01-30T13:49:49;9.40;1.00
4054;DHT22;2042;47.956;9.222;2024-01-30T13:52:15;9.40;1.00
4054;DHT22;2042;47.956;9.222;2024-01-30T13:54:40;9.30;1.00
4054;DHT22;2042;47.956;9.222;2024-01-30T13:57:06;9.30;1.00
4054;DHT22;2042;47.956;9.222;2024-01-30T13:59:34;9.30;1.00
4054;DHT22;2042;47.956;9.222;2024-01-30T14:01:59;9.30;1.00
4054;DHT22;2042;47.956;9.222;2024-01-30T14:04:25;9.30;1.00
4054;DHT22;2042;47.956;9.222;2024-01-30T14:06:51;9.40;1.00
4054;DHT22;2042;47.956;9.222;2024-01-30T14:09:16;9.60;1.00
4054;DHT22;2042;47.956;9.222;2024-01-30T14:11:42;9.60;1.00
4054;DHT22;2042;47.956;9.222;2024-01-30T14:14:09;9.40;1.00
4054;DHT22;2042;47.956;9.222;2024-01-30T14:16:34;9.30;1.00
4054;DHT22;2042;47.956;9.222;2024-01-30T14:19:00;9.20;1.00
4054;DHT22;2042;47.956;9.222;2024-01-30T14:21:26;9.20;1.00
4054;DHT22;2042;47.956;9.222;2024-01-30T14:23:52;9.30;1.00
4054;DHT22;2042;47.956;9.222;2024-01-30T14:26:18;9.30;1.00
4054;DHT22;2042;47.956;9.222;2024-01-30T14:28:43;9.30;1.00
4054;DHT22;2042;47.956;9.222;2024-01-30T14:31:11;9.30;1.00
4054;DHT22;2042;47.956;9.222;2024-01-30T14:33:36;9.20;1.00
4054;DHT22;2042;47.956;9.222;2024-01-30T14:36:02;9.20;1.00
4054;DHT22;2042;47.956;9.222;2024-01-30T14:38:28;9.00;1.00
4054;DHT22;2042;47.956;9.222;2024-01-30T14:40:54;8.90;1.00
4054;DHT22;2042;47.956;9.222;2024-01-30T14:43:19;8.70;1.00
4054;DHT22;2042;47.956;9.222;2024-01-30T14:45:45;8.50;1.00
4054;DHT22;2042;47.956;9.222;2024-01-30T14:48:14;8.40;1.00
4054;DHT22;2042;47.956;9.222;2024-01-30T14:50:40;8.30;1.00
4054;DHT22;2042;47.956;9.222;2024-01-30T14:53:05;8.30;1.00
4054;DHT22;2042;47.956;9.222;2024-01-30T14:55:31;8.20;1.00
4054;DHT22;2042;47.956;9.222;2024-01-30T14:57:56;8.20;1.00
4054;DHT22;2042;47.956;9.222;2024-01-30T15:00:24;8.10;1.00
4054;DHT22;2042;47.956;9.222;2024-01-30T15:02:50;8.00;1.00
4054;DHT22;2042;47.956;9.222;2024-01-30T15:05:15;7.90;1.00
4054;DHT22;2042;47.956;9.222;2024-01-30T15:07:42;7.90;1.00
4054;DHT22;2042;47.956;9.222;2024-01-30T15:10:08;7.80;1.00
4054;DHT22;2042;47.956;9.222;2024-01-30T15:12:35;7.70;1.00
4054;DHT22;2042;47.956;9.222;2024-01-30T15:15:01;7.60;1.00
4054;DHT22;2042;47.956;9.222;2024-01-30T15:17:27;7.60;1.00
4054;DHT22;2042;47.956;9.222;2024-01-30T15:19:52;7.50;1.00
4054;DHT22;2042;47.956;9.222;2024-01-30T15:22:18;7.50;1.00
4054;DHT22;2042;47.956;9.222;2024-01-30T15:24:44;7.60;1.00
4054;DHT22;2042;47.956;9.222;2024-01-30T15:27:10;7.50;1.00
4054;DHT22;2042;47.956;9.222;2024-01-30T15:29:35;7.40;1.00
4054;DHT22;2042;47.956;9.222;2024-01-30T15:32:01;7.30;1.00
4054;DHT22;2042;47.956;9.222;2024-01-30T15:34:27;7.10;1.00
4054;DHT22;2042;47.956;9.222;2024-01-30T15:36:52;7.00;1.00
4054;DHT22;2042;47.956;9.222;2024-01-30T15:39:18;6.80;1.00
4054;DHT22;2042;47.956;9.222;2024-01-30T15:41:45;6.70;1.00
4054;DHT22;2042;47.956;9.222;2024-01-30T15:44:10;6.60;1.00
4054;DHT22;2042;47.956;9.222;2024-01-30T15:46:36;6.50;1.00
4054;DHT22;2042;47.956;9.222;2024-01-30T15:49:01;6.30;1.00
4054;DHT22;2042;47.956;9.222;2024-01-30T15:51:29;6.20;1.00
4054;DHT22;2042;47.956;9.222;2024-01-30T15:53:55;6.10;1.00
4054;DHT22;2042;47.956;9.222;2024-01-30T15:56:21;5.90;1.00
4054;DHT22;2042;47.956;9.222;2024-01-30T15:58:47;5.80;1.00
4054;DHT22;2042;47.956;9.222;2024-01-30T16:01:15;5.80;1.00
4054;DHT22;2042;47.956;9.222;2024-01-30T16:03:42;5.70;1.00
4054;DHT22;2042;47.956;9.222;2024-01-30T16:06:11;5.70;1.00